createdAt,value
2023-03-29T00:01:43.381Z,10.20
2023-03-29T00:04:15.718Z,10.30
2023-03-29T00:06:42.596Z,10.30
2023-03-29T00:09:11.741Z,10.30
2023-03-29T00:11:41.069Z,10.30
2023-03-29T00:14:13.448Z,10.20
2023-03-29T00:16:40.628Z,10.20
2023-03-29T00:19:10.315Z,10.20
2023-03-29T00:21:37.148Z,10.20
2023-03-29T00:24:06.778Z,10.30
2023-03-29T00:26:36.124Z,10.20
2023-03-29T00:29:03.115Z,10.20
2023-03-29T00:31:32.765Z,10.20
2023-03-29T00:33:59.982Z,10.20
2023-03-29T00:36:29.242Z,10.20
2023-03-29T00:38:56.830Z,10.20
2023-03-29T00:41:29.673Z,10.20
2023-03-29T00:44:04.085Z,10.20
2023-03-29T00:46:34.948Z,10.20
2023-03-29T00:49:13.498Z,10.10
2023-03-29T00:51:42.583Z,10.20
2023-03-29T00:54:16.037Z,10.10
2023-03-29T00:56:50.157Z,10.20
2023-03-29T00:59:27.580Z,10.20
2023-03-29T01:02:06.881Z,10.10
2023-03-29T01:05:00.638Z,10.20
2023-03-29T01:07:35.340Z,10.20
2023-03-29T01:10:18.303Z,10.20
2023-03-29T01:12:56.324Z,10.20
2023-03-29T01:15:27.724Z,10.20
2023-03-29T01:17:58.339Z,10.20
2023-03-29T01:20:56.885Z,10.20
2023-03-29T01:24:07.826Z,10.20
2023-03-29T01:27:22.967Z,10.20
2023-03-29T01:30:04.844Z,10.30
2023-03-29T01:33:05.367Z,10.20
2023-03-29T01:36:05.031Z,10.30
2023-03-29T01:38:39.608Z,10.30
2023-03-29T01:41:10.910Z,10.30
2023-03-29T01:44:02.057Z,10.30
2023-03-29T01:46:45.493Z,10.30
2023-03-29T01:49:45.223Z,10.30
2023-03-29T01:52:24.897Z,10.20
2023-03-29T01:55:18.425Z,10.20
2023-03-29T01:57:52.057Z,10.20
2023-03-29T02:00:29.470Z,10.20
2023-03-29T02:03:08.979Z,10.20
2023-03-29T02:05:41.125Z,10.20
2023-03-29T02:08:13.481Z,10.20
2023-03-29T02:10:41.009Z,10.20
2023-03-29T02:13:07.955Z,10.20
2023-03-29T02:15:37.320Z,10.20
2023-03-29T02:18:08.526Z,10.10
2023-03-29T02:20:41.620Z,10.10
2023-03-29T02:23:27.289Z,10.10
2023-03-29T02:25:56.909Z,10.10
2023-03-29T02:28:29.849Z,10.10
2023-03-29T02:31:03.148Z,10.10
2023-03-29T02:33:37.712Z,10.10
2023-03-29T02:36:31.292Z,10.10
2023-03-29T02:39:05.863Z,10.10
2023-03-29T02:41:38.337Z,10.10
2023-03-29T02:44:13.974Z,10.10
2023-03-29T02:46:44.085Z,10.10
2023-03-29T02:49:14.884Z,10.10
2023-03-29T02:51:42.999Z,10.10
2023-03-29T02:54:20.451Z,10.10
2023-03-29T02:56:56.378Z,10.00
2023-03-29T02:59:24.176Z,10.00
2023-03-29T03:01:52.795Z,10.00
2023-03-29T03:04:23.342Z,10.00
2023-03-29T03:06:50.313Z,10.00
2023-03-29T03:09:17.894Z,10.00
2023-03-29T03:11:50.629Z,10.00
2023-03-29T03:14:23.559Z,10.00
2023-03-29T03:16:52.760Z,10.00
2023-03-29T03:19:24.749Z,10.00
2023-03-29T03:21:57.192Z,10.00
2023-03-29T03:24:24.228Z,10.00
2023-03-29T03:26:51.187Z,10.00
2023-03-29T03:29:24.726Z,10.00
2023-03-29T03:32:15.042Z,10.00
2023-03-29T03:35:08.067Z,10.00
2023-03-29T03:37:38.253Z,10.00
2023-03-29T03:40:12.124Z,10.00
2023-03-29T03:42:41.126Z,10.00
2023-03-29T03:45:13.840Z,9.90
2023-03-29T03:47:56.541Z,10.00
2023-03-29T03:50:34.504Z,10.00
2023-03-29T03:53:03.876Z,10.00
2023-03-29T03:55:53.283Z,10.00
2023-03-29T03:58:24.346Z,10.00
2023-03-29T04:00:59.034Z,10.10
2023-03-29T04:03:40.960Z,10.10
2023-03-29T04:06:13.749Z,10.10
2023-03-29T04:09:02.953Z,10.00
2023-03-29T04:11:36.739Z,10.00
2023-03-29T04:14:10.318Z,10.10
2023-03-29T04:17:16.878Z,10.00
2023-03-29T04:19:49.063Z,10.10
2023-03-29T04:22:23.387Z,10.00
2023-03-29T04:24:52.340Z,10.00
2023-03-29T04:27:40.458Z,10.00
2023-03-29T04:30:24.326Z,10.10
2023-03-29T04:33:14.165Z,10.10
2023-03-29T04:35:44.720Z,10.10
2023-03-29T04:38:17.198Z,10.10
2023-03-29T04:40:48.874Z,10.10
2023-03-29T04:43:41.988Z,10.10
2023-03-29T04:46:20.267Z,10.10
2023-03-29T04:49:14.275Z,10.10
2023-03-29T04:51:44.955Z,10.10
2023-03-29T04:54:12.254Z,10.10
2023-03-29T04:56:55.802Z,10.10
2023-03-29T05:00:01.154Z,10.20
2023-03-29T05:02:48.901Z,10.20
2023-03-29T05:05:18.206Z,10.20
2023-03-29T05:07:52.264Z,10.20
2023-03-29T05:10:24.464Z,10.20
2023-03-29T05:12:56.896Z,10.20
2023-03-29T05:15:26.086Z,10.20
2023-03-29T05:17:55.110Z,10.20
2023-03-29T05:20:25.034Z,10.20
2023-03-29T05:22:53.235Z,10.20
2023-03-29T05:25:47.609Z,10.20
2023-03-29T05:28:20.157Z,10.20
2023-03-29T05:30:47.742Z,10.20
2023-03-29T05:33:19.818Z,10.20
2023-03-29T05:35:46.862Z,10.20
2023-03-29T05:38:16.714Z,10.20
2023-03-29T05:40:46.283Z,10.20
2023-03-29T05:43:15.348Z,10.20
2023-03-29T05:45:42.719Z,10.20
2023-03-29T05:48:18.327Z,10.20
2023-03-29T05:50:50.541Z,10.20
2023-03-29T05:53:22.379Z,10.30
2023-03-29T05:55:51.422Z,10.30
2023-03-29T05:58:21.417Z,10.30
2023-03-29T06:00:51.879Z,10.30
2023-03-29T06:03:39.775Z,10.30
2023-03-29T06:06:07.355Z,10.40
2023-03-29T06:08:35.495Z,10.40
2023-03-29T06:11:34.865Z,10.40
2023-03-29T06:14:27.086Z,10.40
2023-03-29T06:17:07.662Z,10.40
2023-03-29T06:19:34.795Z,10.40
2023-03-29T06:22:03.769Z,10.50
2023-03-29T06:24:36.385Z,10.50
2023-03-29T06:27:12.135Z,10.50
2023-03-29T06:29:39.595Z,10.60
2023-03-29T06:32:08.769Z,10.60
2023-03-29T06:34:53.438Z,10.70
2023-03-29T06:37:49.252Z,10.70
2023-03-29T06:40:30.804Z,10.70
2023-03-29T06:43:00.431Z,10.70
2023-03-29T06:45:34.088Z,10.70
2023-03-29T06:48:07.935Z,10.60
2023-03-29T06:50:37.880Z,10.70
2023-03-29T06:53:10.236Z,10.70
2023-03-29T06:55:43.921Z,10.70
2023-03-29T06:58:41.744Z,10.70
2023-03-29T07:01:47.181Z,10.70
2023-03-29T07:04:24.722Z,10.70
2023-03-29T07:07:20.213Z,10.70
2023-03-29T07:09:54.372Z,10.70
2023-03-29T07:12:46.240Z,10.80
2023-03-29T07:15:20.117Z,10.70
2023-03-29T07:18:09.004Z,10.80
2023-03-29T07:20:38.753Z,10.80
2023-03-29T07:23:10.559Z,10.80
2023-03-29T07:25:46.880Z,10.90
2023-03-29T07:28:13.872Z,10.90
2023-03-29T07:30:45.558Z,10.90
2023-03-29T07:33:16.061Z,11.00
2023-03-29T07:35:49.193Z,11.00
2023-03-29T07:38:23.380Z,11.00
2023-03-29T07:41:12.911Z,11.10
2023-03-29T07:43:42.339Z,11.10
2023-03-29T07:46:15.030Z,11.10
2023-03-29T07:48:44.155Z,11.10
2023-03-29T07:51:18.906Z,11.20
2023-03-29T07:53:49.744Z,11.20
2023-03-29T07:56:40.423Z,11.20
2023-03-29T07:59:14.206Z,11.30
2023-03-29T08:01:44.578Z,11.30
2023-03-29T08:04:26.491Z,11.40
2023-03-29T08:07:12.546Z,11.40
2023-03-29T08:10:04.853Z,11.40
2023-03-29T08:12:58.099Z,11.40
2023-03-29T08:15:33.616Z,11.40
2023-03-29T08:18:00.887Z,11.50
2023-03-29T08:20:28.029Z,11.40
2023-03-29T08:23:05.171Z,11.50
2023-03-29T08:25:52.010Z,11.50
2023-03-29T08:28:22.258Z,11.50
2023-03-29T08:30:51.591Z,11.50
2023-03-29T08:33:23.207Z,11.60
2023-03-29T08:36:00.361Z,11.60
2023-03-29T08:38:33.268Z,11.60
2023-03-29T08:41:00.321Z,11.60
2023-03-29T08:43:38.769Z,11.60
2023-03-29T08:47:07.145Z,11.60
2023-03-29T08:49:49.261Z,11.70
2023-03-29T08:52:44.499Z,11.80
2023-03-29T08:55:36.213Z,11.90
2023-03-29T08:58:40.882Z,11.90
2023-03-29T09:01:11.701Z,12.00
2023-03-29T09:04:01.243Z,12.10
2023-03-29T09:06:43.672Z,12.20
2023-03-29T09:09:25.465Z,12.30
2023-03-29T09:12:19.656Z,12.40
2023-03-29T09:14:57.994Z,12.50
2023-03-29T09:17:49.704Z,12.50
2023-03-29T09:20:56.891Z,12.60
2023-03-29T09:24:04.428Z,12.70
2023-03-29T09:26:52.817Z,12.70
2023-03-29T09:29:52.014Z,12.70
2023-03-29T09:32:43.992Z,12.80
2023-03-29T09:35:18.308Z,12.80
2023-03-29T09:37:54.527Z,12.80
2023-03-29T09:40:38.282Z,13.00
2023-03-29T09:43:29.225Z,13.00
2023-03-29T09:46:04.375Z,13.00
2023-03-29T09:48:43.074Z,13.10
2023-03-29T09:51:13.341Z,13.20
2023-03-29T09:53:43.732Z,13.30
2023-03-29T09:56:40.270Z,13.40
2023-03-29T09:59:13.767Z,13.50
2023-03-29T10:01:47.599Z,13.50
2023-03-29T10:04:16.752Z,13.60
2023-03-29T10:06:54.630Z,13.60
2023-03-29T10:09:27.783Z,13.70
2023-03-29T10:12:07.153Z,13.80
2023-03-29T10:14:41.182Z,13.90
2023-03-29T10:17:28.226Z,13.90
2023-03-29T10:20:04.554Z,14.00
2023-03-29T10:22:37.757Z,14.20
2023-03-29T10:25:14.726Z,14.20
2023-03-29T10:27:48.874Z,14.30
2023-03-29T10:30:25.968Z,14.30
2023-03-29T10:33:02.388Z,14.40
2023-03-29T10:35:33.299Z,14.40
2023-03-29T10:38:14.942Z,14.50
2023-03-29T10:40:48.010Z,14.50
2023-03-29T10:43:32.682Z,14.60
2023-03-29T10:46:22.021Z,14.60
2023-03-29T10:48:57.553Z,14.70
2023-03-29T10:51:30.088Z,14.70
2023-03-29T10:54:01.359Z,14.80
2023-03-29T10:56:52.504Z,14.80
2023-03-29T10:59:28.767Z,14.80
2023-03-29T11:02:18.940Z,14.90
2023-03-29T11:04:58.436Z,15.00
2023-03-29T11:07:46.568Z,15.00
2023-03-29T11:10:54.279Z,15.00
2023-03-29T11:13:38.034Z,15.10
2023-03-29T11:16:52.335Z,15.20
2023-03-29T11:20:02.425Z,15.20
2023-03-29T11:23:00.158Z,15.30
2023-03-29T11:25:46.084Z,15.30
2023-03-29T11:28:43.058Z,15.40
2023-03-29T11:31:28.547Z,15.50
2023-03-29T11:34:41.425Z,15.60
2023-03-29T11:37:20.338Z,15.60
2023-03-29T11:40:36.145Z,15.70
2023-03-29T11:43:48.869Z,15.80
2023-03-29T11:46:32.612Z,15.90
2023-03-29T11:49:32.267Z,16.10
2023-03-29T11:52:38.713Z,16.20
2023-03-29T11:55:31.427Z,16.30
2023-03-29T11:58:28.020Z,16.50
2023-03-29T12:01:04.270Z,16.60
2023-03-29T12:03:46.780Z,16.80
2023-03-29T12:06:40.772Z,16.90
2023-03-29T12:09:44.972Z,17.10
2023-03-29T12:12:59.502Z,17.30
2023-03-29T12:15:42.585Z,17.50
2023-03-29T12:18:41.736Z,17.60
2023-03-29T12:21:22.611Z,17.80
2023-03-29T12:23:53.922Z,18.00
2023-03-29T12:26:51.665Z,18.20
2023-03-29T12:30:07.389Z,18.40
2023-03-29T12:33:07.302Z,18.70
2023-03-29T12:36:05.817Z,19.00
2023-03-29T12:38:53.176Z,19.30
2023-03-29T12:41:41.616Z,19.50
2023-03-29T12:44:34.862Z,19.60
2023-03-29T12:47:26.657Z,19.70
2023-03-29T12:50:01.277Z,19.90
2023-03-29T12:52:39.211Z,20.00
2023-03-29T12:55:46.859Z,20.10
2023-03-29T12:58:38.863Z,20.20
2023-03-29T13:01:23.410Z,20.30
2023-03-29T13:04:15.626Z,20.50
2023-03-29T13:06:48.850Z,20.70
2023-03-29T13:09:30.042Z,20.80
2023-03-29T13:12:11.969Z,20.90
2023-03-29T13:14:57.676Z,21.00
2023-03-29T13:17:55.308Z,21.10
2023-03-29T13:21:18.630Z,21.10
2023-03-29T13:23:54.409Z,21.20
2023-03-29T13:26:51.162Z,21.20
2023-03-29T13:29:47.598Z,21.20
2023-03-29T13:32:38.701Z,21.10
2023-03-29T13:35:16.820Z,20.90
2023-03-29T13:38:07.216Z,20.70
2023-03-29T13:40:59.729Z,20.50
2023-03-29T13:43:49.725Z,20.30
2023-03-29T13:46:22.879Z,20.10
2023-03-29T13:49:05.278Z,19.90
2023-03-29T13:51:41.992Z,19.80
2023-03-29T13:54:30.519Z,19.50
2023-03-29T13:57:12.680Z,19.40
2023-03-29T13:59:59.880Z,19.30
2023-03-29T14:02:39.258Z,19.30
2023-03-29T14:05:13.427Z,19.30
2023-03-29T14:07:47.550Z,19.20
2023-03-29T14:10:21.156Z,19.20
2023-03-29T14:12:52.113Z,19.30
2023-03-29T14:15:27.644Z,19.30
2023-03-29T14:18:01.358Z,19.30
2023-03-29T14:20:36.199Z,19.40
2023-03-29T14:23:16.085Z,19.40
2023-03-29T14:25:43.285Z,19.40
2023-03-29T14:28:26.202Z,19.30
2023-03-29T14:30:54.274Z,19.30
2023-03-29T14:33:34.479Z,19.40
2023-03-29T14:36:12.453Z,19.50
2023-03-29T14:38:40.395Z,19.60
2023-03-29T14:41:10.186Z,19.70
2023-03-29T14:43:38.109Z,19.60
2023-03-29T14:46:07.065Z,19.60
2023-03-29T14:48:40.181Z,19.50
2023-03-29T14:51:08.800Z,19.50
2023-03-29T14:53:39.219Z,19.50
2023-03-29T14:56:15.874Z,19.50
2023-03-29T14:58:48.790Z,19.40
2023-03-29T15:01:24.406Z,19.40
2023-03-29T15:04:10.137Z,19.40
2023-03-29T15:06:45.209Z,19.30
2023-03-29T15:09:27.782Z,19.30
2023-03-29T15:11:59.534Z,19.30
2023-03-29T15:14:38.235Z,19.30
2023-03-29T15:17:47.742Z,19.30
2023-03-29T15:20:31.947Z,19.30
2023-03-29T15:23:07.592Z,19.30
2023-03-29T15:25:41.662Z,19.30
2023-03-29T15:28:35.363Z,19.30
2023-03-29T15:31:18.226Z,19.20
2023-03-29T15:33:47.763Z,19.30
2023-03-29T15:36:21.786Z,19.20
2023-03-29T15:38:51.679Z,19.30
2023-03-29T15:41:21.418Z,19.30
2023-03-29T15:43:48.401Z,19.30
2023-03-29T15:46:19.462Z,19.30
2023-03-29T15:48:49.430Z,19.30
2023-03-29T15:51:16.624Z,19.30
2023-03-29T15:53:46.058Z,19.30
2023-03-29T15:56:20.802Z,19.30
2023-03-29T15:58:50.073Z,19.30
2023-03-29T16:01:37.258Z,19.30
2023-03-29T16:04:10.401Z,19.20
2023-03-29T16:06:38.161Z,19.20
2023-03-29T16:09:06.991Z,19.20
2023-03-29T16:11:34.610Z,19.10
2023-03-29T16:14:43.403Z,19.10
2023-03-29T16:17:16.097Z,19.10
2023-03-29T16:19:47.920Z,19.10
2023-03-29T16:22:14.827Z,19.10
2023-03-29T16:24:43.925Z,19.10
2023-03-29T16:27:10.742Z,19.10
2023-03-29T16:29:37.768Z,19.10
2023-03-29T16:32:06.706Z,19.10
2023-03-29T16:34:41.657Z,19.10
2023-03-29T16:37:09.053Z,19.10
2023-03-29T16:39:38.044Z,19.10
2023-03-29T16:42:11.171Z,19.00
2023-03-29T16:44:44.376Z,19.00
2023-03-29T16:47:13.686Z,19.00
2023-03-29T16:49:48.534Z,19.00
2023-03-29T16:52:15.672Z,19.00
2023-03-29T16:54:46.890Z,19.00
2023-03-29T16:57:13.806Z,18.90
2023-03-29T16:59:45.008Z,18.90
2023-03-29T17:02:14.252Z,18.80
2023-03-29T17:04:44.548Z,18.80
2023-03-29T17:07:18.578Z,18.80
2023-03-29T17:09:55.461Z,18.80
2023-03-29T17:12:23.266Z,18.80
2023-03-29T17:14:52.706Z,18.70
2023-03-29T17:17:21.844Z,18.70
2023-03-29T17:19:49.129Z,18.70
2023-03-29T17:22:19.080Z,18.70
2023-03-29T17:24:48.252Z,18.70
2023-03-29T17:27:17.767Z,18.60
2023-03-29T17:29:44.648Z,18.60
2023-03-29T17:32:16.170Z,18.60
2023-03-29T17:34:43.301Z,18.60
2023-03-29T17:37:12.783Z,18.50
2023-03-29T17:39:42.086Z,18.50
2023-03-29T17:42:09.233Z,18.40
2023-03-29T17:44:36.366Z,18.40
2023-03-29T17:47:05.545Z,18.40
2023-03-29T17:49:35.032Z,18.40
2023-03-29T17:52:02.055Z,18.40
2023-03-29T17:54:29.027Z,18.30
2023-03-29T17:56:58.018Z,18.30
2023-03-29T17:59:27.847Z,18.30
2023-03-29T18:01:54.774Z,18.30
2023-03-29T18:04:26.427Z,18.30
2023-03-29T18:06:55.359Z,18.20
2023-03-29T18:09:22.166Z,18.20
2023-03-29T18:11:51.908Z,18.20
2023-03-29T18:14:21.434Z,18.10
2023-03-29T18:16:50.789Z,18.10
2023-03-29T18:19:21.295Z,18.10
2023-03-29T18:21:51.872Z,18.10
2023-03-29T18:24:18.807Z,18.10
2023-03-29T18:26:45.721Z,18.10
2023-03-29T18:29:12.860Z,18.00
2023-03-29T18:31:43.529Z,18.00
2023-03-29T18:34:12.722Z,18.00
2023-03-29T18:36:39.738Z,17.90
2023-03-29T18:39:06.764Z,17.90
2023-03-29T18:41:37.158Z,17.90
2023-03-29T18:44:07.511Z,17.90
2023-03-29T18:46:36.629Z,17.80
2023-03-29T18:49:04.103Z,17.80
2023-03-29T18:51:31.090Z,17.80
2023-03-29T18:53:58.051Z,17.80
2023-03-29T18:56:25.038Z,17.80
2023-03-29T18:58:59.577Z,17.70
2023-03-29T19:01:29.064Z,17.70
2023-03-29T19:03:58.117Z,17.70
2023-03-29T19:06:24.949Z,17.70
2023-03-29T19:08:53.866Z,17.70
2023-03-29T19:11:21.554Z,17.60
2023-03-29T19:13:52.139Z,17.60
2023-03-29T19:16:21.615Z,17.60
2023-03-29T19:18:51.660Z,17.60
2023-03-29T19:21:18.579Z,17.50
2023-03-29T19:23:46.446Z,17.50
2023-03-29T19:26:14.883Z,17.60
2023-03-29T19:28:41.933Z,17.60
2023-03-29T19:31:12.058Z,17.50
2023-03-29T19:33:44.092Z,17.50
2023-03-29T19:36:13.641Z,17.50
2023-03-29T19:38:43.109Z,17.50
2023-03-29T19:41:10.132Z,17.50
2023-03-29T19:43:37.166Z,17.40
2023-03-29T19:46:12.802Z,17.40
2023-03-29T19:48:40.128Z,17.40
2023-03-29T19:51:07.954Z,17.40
2023-03-29T19:53:38.501Z,17.30
2023-03-29T19:56:07.846Z,17.30
2023-03-29T19:58:37.787Z,17.30
2023-03-29T20:01:09.377Z,17.20
2023-03-29T20:03:39.498Z,17.20
2023-03-29T20:06:09.741Z,17.20
2023-03-29T20:08:39.067Z,17.20
2023-03-29T20:11:10.175Z,17.10
2023-03-29T20:13:47.248Z,17.10
2023-03-29T20:16:25.631Z,17.10
2023-03-29T20:18:53.921Z,17.10
2023-03-29T20:21:20.800Z,17.00
2023-03-29T20:23:48.052Z,17.00
2023-03-29T20:26:17.447Z,17.00
2023-03-29T20:28:44.418Z,17.00
2023-03-29T20:31:16.019Z,17.00
2023-03-29T20:33:48.384Z,16.90
2023-03-29T20:36:23.254Z,16.90
2023-03-29T20:38:51.303Z,16.90
2023-03-29T20:41:19.625Z,16.80
2023-03-29T20:43:58.049Z,16.80
2023-03-29T20:46:35.827Z,16.70
2023-03-29T20:49:09.834Z,16.80
2023-03-29T20:51:40.266Z,16.70
2023-03-29T20:54:12.728Z,16.70
2023-03-29T20:56:42.053Z,16.70
2023-03-29T20:59:13.422Z,16.60
2023-03-29T21:01:42.523Z,16.60
2023-03-29T21:04:10.674Z,16.60
2023-03-29T21:06:39.520Z,16.50
2023-03-29T21:09:08.688Z,16.50
2023-03-29T21:11:40.853Z,16.50
2023-03-29T21:14:09.109Z,16.50
2023-03-29T21:16:36.279Z,16.40
2023-03-29T21:19:05.646Z,16.40
2023-03-29T21:21:35.844Z,16.40
2023-03-29T21:24:03.787Z,16.40
2023-03-29T21:26:33.987Z,16.40
2023-03-29T21:29:01.209Z,16.40
2023-03-29T21:31:30.441Z,16.30
2023-03-29T21:33:59.648Z,16.30
2023-03-29T21:36:31.746Z,16.30
2023-03-29T21:39:01.508Z,16.20
2023-03-29T21:41:28.431Z,16.20
2023-03-29T21:44:00.287Z,16.20
2023-03-29T21:46:32.036Z,16.20
2023-03-29T21:49:03.674Z,16.20
2023-03-29T21:51:30.710Z,16.20
2023-03-29T21:53:57.484Z,16.20
2023-03-29T21:56:26.413Z,16.10
2023-03-29T21:58:55.574Z,16.20
2023-03-29T22:01:24.839Z,16.10
2023-03-29T22:03:54.084Z,16.20
2023-03-29T22:06:23.872Z,16.10
2023-03-29T22:08:52.953Z,16.10
2023-03-29T22:11:20.860Z,16.10
2023-03-29T22:13:51.656Z,16.10
2023-03-29T22:16:20.774Z,16.10
2023-03-29T22:18:52.440Z,16.10
2023-03-29T22:21:25.131Z,16.10
2023-03-29T22:23:59.002Z,16.10
2023-03-29T22:26:30.481Z,16.10
2023-03-29T22:29:00.006Z,16.10
2023-03-29T22:31:29.376Z,16.10
2023-03-29T22:33:58.765Z,16.10
2023-03-29T22:36:31.134Z,16.10
2023-03-29T22:39:03.563Z,16.00
2023-03-29T22:41:35.101Z,16.10
2023-03-29T22:44:04.857Z,16.10
2023-03-29T22:46:31.739Z,16.00
2023-03-29T22:49:03.840Z,16.00
2023-03-29T22:51:31.083Z,16.00
2023-03-29T22:54:02.327Z,16.00
2023-03-29T22:56:31.545Z,16.00
2023-03-29T22:58:58.683Z,16.00
2023-03-29T23:01:25.735Z,16.00
2023-03-29T23:03:52.782Z,15.90
2023-03-29T23:06:19.758Z,15.90
2023-03-29T23:08:48.715Z,15.90
2023-03-29T23:11:20.294Z,15.90
2023-03-29T23:13:49.664Z,15.90
2023-03-29T23:16:21.822Z,15.90
2023-03-29T23:18:51.437Z,15.90
2023-03-29T23:21:18.271Z,15.90
2023-03-29T23:23:45.426Z,15.90
2023-03-29T23:26:12.450Z,15.90
2023-03-29T23:28:48.510Z,15.80
2023-03-29T23:31:23.774Z,15.80
2023-03-29T23:33:53.019Z,15.80
2023-03-29T23:36:27.154Z,15.80
2023-03-29T23:38:54.197Z,15.80
2023-03-29T23:41:28.260Z,15.80
2023-03-29T23:43:57.888Z,15.80
2023-03-29T23:46:26.006Z,15.80
2023-03-29T23:48:55.897Z,15.80
2023-03-29T23:51:28.986Z,15.70
2023-03-29T23:53:58.600Z,15.70
2023-03-29T23:56:28.242Z,15.70
2023-03-29T23:58:57.226Z,15.70
